Time;durP1;ratioP1;P1;durP2;ratioP2;P2;SDS_P1;SDS_P2;PMS_P1;PMS_P2;Temp;Humidity;BMP_temperature;BMP_pressure;BME280_temperature;BME280_humidity;BME280_pressure;Samples;Min_cycle;Max_cycle;Signal;HPM_P1;HPM_P2
2022/11/02 00:00:16;;;;;;;7.07;3.58;;;19.00;99.90;;;;;;4144975;28;20270;-72
2022/11/02 00:02:18;;;;;;;7.25;3.53;;;19.10;99.90;;;;;;4141884;28;20228;-72
2022/11/02 00:04:20;;;;;;;6.85;2.90;;;19.00;99.90;;;;;;4139917;28;20630;-72
2022/11/02 00:06:22;;;;;;;6.25;3.28;;;19.10;99.90;;;;;;4144729;28;20221;-72
2022/11/02 00:08:25;;;;;;;8.52;3.38;;;19.00;99.90;;;;;;4144933;28;20213;-72
2022/11/02 00:10:28;;;;;;;6.65;3.22;;;19.10;99.90;;;;;;4141504;28;20975;-72
2022/11/02 00:12:32;;;;;;;6.47;3.47;;;19.00;99.90;;;;;;4150470;28;20217;-72
2022/11/02 00:14:34;;;;;;;10.30;3.38;;;19.00;99.90;;;;;;4147976;28;20267;-72
2022/11/02 00:16:38;;;;;;;6.57;3.30;;;19.00;99.90;;;;;;4147391;28;20252;-72
2022/11/02 00:18:42;;;;;;;8.98;3.38;;;19.00;99.90;;;;;;4144594;28;20314;-72
2022/11/02 00:20:45;;;;;;;7.57;3.38;;;19.00;99.90;;;;;;4143433;28;20209;-72
2022/11/02 00:22:49;;;;;;;7.78;3.60;;;19.00;99.90;;;;;;4143241;28;21170;-72
2022/11/02 00:24:52;;;;;;;6.68;2.97;;;19.00;99.90;;;;;;4144539;28;20217;-72
2022/11/02 00:26:54;;;;;;;7.88;3.40;;;19.00;99.90;;;;;;4141526;28;20227;-72
2022/11/02 00:28:58;;;;;;;7.50;3.00;;;19.00;99.90;;;;;;4150582;28;20213;-72
2022/11/02 00:31:00;;;;;;;8.52;3.30;;;19.00;99.90;;;;;;4144496;28;20658;-73
2022/11/02 00:33:03;;;;;;;6.25;2.83;;;19.00;99.90;;;;;;4140865;28;20232;-72
2022/11/02 00:35:06;;;;;;;8.23;2.97;;;19.00;99.90;;;;;;4144563;28;20221;-72
2022/11/02 00:37:08;;;;;;;6.40;3.60;;;19.00;99.90;;;;;;4144033;28;20216;-72
2022/11/02 00:39:11;;;;;;;5.80;2.90;;;19.00;99.90;;;;;;4141011;28;20249;-73
2022/11/02 00:41:13;;;;;;;5.80;3.05;;;19.00;99.90;;;;;;4145300;28;20580;-73
2022/11/02 00:43:15;;;;;;;6.03;3.35;;;19.00;99.90;;;;;;4145222;28;20297;-72
2022/11/02 00:45:19;;;;;;;8.23;3.33;;;19.00;99.90;;;;;;4141512;28;20644;-73
2022/11/02 00:47:21;;;;;;;6.85;2.65;;;19.00;99.90;;;;;;4145570;28;20275;-73
2022/11/02 00:49:23;;;;;;;6.68;3.33;;;19.00;99.90;;;;;;4144168;28;20244;-72
2022/11/02 00:51:26;;;;;;;7.05;2.70;;;19.00;99.90;;;;;;4141361;28;20274;-72
2022/11/02 00:53:28;;;;;;;6.13;3.10;;;19.00;99.90;;;;;;4143073;28;20229;-73
2022/11/02 00:55:30;;;;;;;4.60;2.60;;;19.00;99.90;;;;;;4143743;28;20295;-72
2022/11/02 00:57:33;;;;;;;6.55;2.97;;;19.00;99.90;;;;;;4141945;28;20263;-73
2022/11/02 00:59:35;;;;;;;7.68;3.30;;;19.00;99.90;;;;;;4144602;28;20760;-72
2022/11/02 01:01:38;;;;;;;6.45;3.20;;;19.00;99.90;;;;;;4144730;28;20629;-73
2022/11/02 01:03:41;;;;;;;6.47;2.80;;;19.00;99.90;;;;;;4139120;28;20304;-73
2022/11/02 01:05:43;;;;;;;5.57;2.88;;;18.90;99.90;;;;;;4147027;28;20217;-72
2022/11/02 01:07:45;;;;;;;5.57;2.70;;;19.00;99.90;;;;;;4145902;28;20212;-73
2022/11/02 01:09:48;;;;;;;7.18;3.10;;;18.90;99.90;;;;;;4148406;28;20267;-73
2022/11/02 01:11:50;;;;;;;6.60;3.28;;;18.90;99.90;;;;;;4148327;28;20271;-72
2022/11/02 01:13:53;;;;;;;6.95;3.15;;;18.90;99.90;;;;;;4145550;28;20221;-73
2022/11/02 01:15:55;;;;;;;6.20;2.58;;;18.90;99.90;;;;;;4147756;28;20274;-73
2022/11/02 01:17:59;;;;;;;7.60;2.78;;;18.90;99.90;;;;;;4148882;28;20276;-72
2022/11/02 01:20:01;;;;;;;6.57;3.13;;;18.90;99.90;;;;;;4144920;28;20630;-73
2022/11/02 01:22:03;;;;;;;6.05;2.92;;;18.90;99.90;;;;;;4148538;28;20267;-73
2022/11/02 01:24:07;;;;;;;6.63;2.75;;;18.90;99.90;;;;;;4148858;28;20666;-72
2022/11/02 01:26:10;;;;;;;6.55;3.63;;;18.90;99.90;;;;;;4144159;28;20221;-72
2022/11/02 01:28:13;;;;;;;7.78;3.05;;;18.90;99.90;;;;;;4149016;28;20221;-72
2022/11/02 01:30:15;;;;;;;5.80;2.70;;;18.90;99.90;;;;;;4148654;28;20271;-72
2022/11/02 01:32:17;;;;;;;6.63;2.50;;;18.90;99.90;;;;;;4140976;28;20744;-72
2022/11/02 01:34:21;;;;;;;7.25;2.88;;;18.90;99.90;;;;;;4148478;28;20209;-72
2022/11/02 01:36:23;;;;;;;6.15;3.10;;;18.90;99.90;;;;;;4145769;28;20217;-72
2022/11/02 01:38:26;;;;;;;6.97;3.22;;;18.90;99.90;;;;;;4143318;28;20217;-72
2022/11/02 01:40:34;;;;;;;6.05;2.88;;;18.90;99.90;;;;;;4149228;28;20240;-72
2022/11/02 01:42:36;;;;;;;5.55;2.95;;;18.90;99.90;;;;;;4147215;28;20639;-72
2022/11/02 01:44:40;;;;;;;5.53;2.60;;;18.90;99.90;;;;;;4142615;28;20213;-72
2022/11/02 01:46:45;;;;;;;6.10;2.63;;;18.90;99.90;;;;;;4147881;28;20279;-73
2022/11/02 01:48:50;;;;;;;6.78;2.83;;;18.90;99.90;;;;;;4143933;28;20259;-72
2022/11/02 01:50:54;;;;;;;6.95;2.90;;;18.90;99.90;;;;;;4144934;28;20221;-72
2022/11/02 01:52:56;;;;;;;5.70;2.60;;;18.90;99.90;;;;;;4149371;28;20217;-72
2022/11/02 01:55:03;;;;;;;7.15;3.45;;;18.90;99.90;;;;;;4141765;28;20273;-72
2022/11/02 01:57:08;;;;;;;6.28;2.92;;;18.90;99.90;;;;;;4132558;28;20229;-73
2022/11/02 01:59:15;;;;;;;7.18;2.95;;;18.90;99.90;;;;;;4142073;28;20654;-72
2022/11/02 02:01:17;;;;;;;5.93;2.53;;;18.90;99.90;;;;;;4141921;28;20225;-72
2022/11/02 02:03:20;;;;;;;6.47;2.70;;;18.90;99.90;;;;;;4145304;28;20317;-73
2022/11/02 02:05:24;;;;;;;4.97;2.90;;;18.90;99.90;;;;;;4146990;28;20267;-73
2022/11/02 02:07:30;;;;;;;6.45;2.60;;;18.90;99.90;;;;;;4143424;28;20777;-73
2022/11/02 02:09:34;;;;;;;6.05;2.63;;;18.90;99.90;;;;;;4146118;28;20673;-73
2022/11/02 02:11:38;;;;;;;4.45;2.33;;;18.90;99.90;;;;;;4143956;28;20256;-72
2022/11/02 02:13:41;;;;;;;6.60;2.72;;;18.90;99.90;;;;;;4146500;28;21095;-72
2022/11/02 02:15:52;;;;;;;6.13;2.95;;;18.90;99.90;;;;;;4134605;28;20638;-73
2022/11/02 02:18:00;;;;;;;5.32;2.42;;;18.90;99.90;;;;;;4138358;28;20221;-73
2022/11/02 02:20:09;;;;;;;6.53;2.53;;;18.90;99.90;;;;;;4145765;28;20236;-73
2022/11/02 02:22:24;;;;;;;7.40;2.63;;;18.90;99.90;;;;;;4145006;28;20212;-72
2022/11/02 02:24:49;;;;;;;6.70;2.47;;;18.90;99.90;;;;;;4143487;28;20275;-73
2022/11/02 02:27:07;;;;;;;7.45;2.83;;;18.90;99.90;;;;;;4147079;28;20290;-73
2022/11/02 02:29:18;;;;;;;6.03;2.30;;;18.90;99.90;;;;;;4142074;28;20221;-73
2022/11/02 02:31:26;;;;;;;4.18;2.50;;;18.90;99.90;;;;;;4145722;28;20271;-73
2022/11/02 02:33:32;;;;;;;5.25;2.53;;;18.90;99.90;;;;;;4146137;28;20298;-73
2022/11/02 02:35:42;;;;;;;5.95;2.85;;;18.80;99.90;;;;;;4140867;28;20271;-72
2022/11/02 02:37:52;;;;;;;6.07;2.63;;;18.80;99.90;;;;;;4146202;28;20263;-73
2022/11/02 02:40:02;;;;;;;7.97;2.72;;;18.90;99.90;;;;;;4147830;28;20989;-72
2022/11/02 02:42:11;;;;;;;6.53;2.65;;;18.90;99.90;;;;;;4140609;28;20216;-72
2022/11/02 02:44:21;;;;;;;5.68;2.83;;;18.80;99.90;;;;;;4144597;28;20267;-72
2022/11/02 02:46:30;;;;;;;6.15;2.58;;;18.90;99.90;;;;;;4144680;28;20213;-73
2022/11/02 02:48:34;;;;;;;4.47;2.35;;;18.80;99.90;;;;;;4145642;28;20609;-72
2022/11/02 02:50:43;;;;;;;5.28;2.58;;;18.80;99.90;;;;;;4146593;28;20221;-72
2022/11/02 02:52:50;;;;;;;5.75;2.40;;;18.80;99.90;;;;;;4143515;28;20661;-73
2022/11/02 02:54:55;;;;;;;5.95;2.75;;;18.80;99.90;;;;;;4144970;28;20213;-72
2022/11/02 02:57:03;;;;;;;6.95;2.78;;;18.80;99.90;;;;;;4144551;28;20332;-72
2022/11/02 02:59:08;;;;;;;5.70;2.33;;;18.80;99.90;;;;;;4141752;28;20659;-72
2022/11/02 03:01:14;;;;;;;6.35;2.70;;;18.80;99.90;;;;;;4145131;28;20271;-72
2022/11/02 03:03:20;;;;;;;7.18;2.53;;;18.80;99.90;;;;;;4144276;28;20268;-72
2022/11/02 03:05:24;;;;;;;7.45;2.67;;;18.80;99.90;;;;;;4143345;28;20264;-73
2022/11/02 03:07:30;;;;;;;7.28;2.70;;;18.80;99.90;;;;;;4144519;28;20235;-72
2022/11/02 03:09:38;;;;;;;6.45;2.60;;;18.80;99.90;;;;;;4146566;28;20267;-73
2022/11/02 03:11:50;;;;;;;4.82;2.30;;;18.80;99.90;;;;;;4145203;28;20299;-73
2022/11/02 03:14:10;;;;;;;6.63;2.60;;;18.80;99.90;;;;;;4142342;28;20259;-73
2022/11/02 03:16:22;;;;;;;7.15;2.47;;;18.80;99.90;;;;;;4132517;28;20259;-73
2022/11/02 03:18:33;;;;;;;6.03;2.25;;;18.80;99.90;;;;;;4141677;28;20321;-73
2022/11/02 03:20:48;;;;;;;5.28;2.58;;;18.80;99.90;;;;;;4148019;28;20232;-72
2022/11/02 03:23:01;;;;;;;6.15;2.85;;;18.80;99.90;;;;;;4146299;28;20285;-72
2022/11/02 03:25:12;;;;;;;5.30;2.00;;;18.80;99.90;;;;;;4141635;28;20214;-72
2022/11/02 03:27:20;;;;;;;6.78;2.58;;;18.80;99.90;;;;;;4146762;28;20224;-72
2022/11/02 03:29:28;;;;;;;6.18;2.75;;;18.80;99.90;;;;;;4136436;28;20209;-72
2022/11/02 03:31:37;;;;;;;6.07;2.63;;;18.80;99.90;;;;;;4138093;28;20351;-72
2022/11/02 03:33:46;;;;;;;5.22;2.42;;;18.80;99.90;;;;;;4143641;28;20689;-72
2022/11/02 03:35:56;;;;;;;4.18;2.10;;;18.80;99.90;;;;;;4146454;28;20221;-73
2022/11/02 03:38:04;;;;;;;6.43;2.47;;;18.80;99.90;;;;;;4142984;28;20217;-73
2022/11/02 03:40:10;;;;;;;5.85;2.83;;;18.80;99.90;;;;;;4145197;28;20236;-73
2022/11/02 03:42:17;;;;;;;6.50;2.55;;;18.80;99.90;;;;;;4144733;28;20275;-73
2022/11/02 03:44:24;;;;;;;4.95;2.22;;;18.80;99.90;;;;;;4147273;28;20272;-73
2022/11/02 03:46:27;;;;;;;5.68;2.58;;;18.80;99.90;;;;;;4144863;28;20283;-73
2022/11/02 03:48:35;;;;;;;6.10;2.50;;;18.80;99.90;;;;;;4143056;28;20225;-73
2022/11/02 03:50:44;;;;;;;5.60;2.70;;;18.80;99.90;;;;;;4145705;28;20213;-72
2022/11/02 03:52:48;;;;;;;5.95;2.30;;;18.80;99.90;;;;;;4145717;28;20212;-73
2022/11/02 03:54:58;;;;;;;5.65;2.40;;;18.80;99.90;;;;;;4142500;28;20213;-73
2022/11/02 03:57:04;;;;;;;7.50;2.47;;;18.70;99.90;;;;;;4145139;28;20240;-73
2022/11/02 03:59:06;;;;;;;5.07;2.30;;;18.80;99.90;;;;;;4144924;28;20221;-73
2022/11/02 04:01:09;;;;;;;7.38;2.50;;;18.80;99.90;;;;;;4143115;28;20295;-73
2022/11/02 04:03:13;;;;;;;6.38;2.22;;;18.80;99.90;;;;;;4145265;28;21132;-73
2022/11/02 04:05:17;;;;;;;4.82;2.20;;;18.80;99.90;;;;;;4145152;28;20263;-73
2022/11/02 04:07:24;;;;;;;6.28;2.55;;;18.80;99.90;;;;;;4142236;28;20268;-73
2022/11/02 04:09:26;;;;;;;4.50;2.03;;;18.80;99.90;;;;;;4144578;28;20221;-73
2022/11/02 04:16:10;;;;;;;5.38;2.30;;;18.80;99.90;;;;;;4148507;28;20209;-73
2022/11/02 04:20:34;;;;;;;4.68;2.15;;;18.80;99.90;;;;;;4141164;28;20225;-73
2022/11/02 04:27:15;;;;;;;4.20;2.22;;;18.80;99.90;;;;;;4147042;28;20210;-73
2022/11/02 04:29:17;;;;;;;7.25;2.25;;;18.70;99.90;;;;;;4144929;28;20217;-73
2022/11/02 04:31:20;;;;;;;5.72;2.47;;;18.70;99.90;;;;;;4142902;28;20642;-73
2022/11/02 04:33:33;;;;;;;8.13;2.25;;;18.70;99.90;;;;;;4142587;28;20221;-73
2022/11/02 04:35:37;;;;;;;6.07;2.75;;;18.70;99.90;;;;;;4144984;28;20220;-73
2022/11/02 04:39:59;;;;;;;3.65;1.98;;;18.70;99.90;;;;;;4144210;28;20209;-73
2022/11/02 04:42:01;;;;;;;6.80;2.60;;;18.70;99.90;;;;;;4145159;28;20286;-73
2022/11/02 04:44:04;;;;;;;7.53;2.53;;;18.70;99.90;;;;;;4147343;28;20274;-73
2022/11/02 04:46:06;;;;;;;5.07;2.00;;;18.70;99.90;;;;;;4145536;28;20756;-73
2022/11/02 04:48:10;;;;;;;6.30;2.30;;;18.70;99.90;;;;;;4151953;28;20619;-73
2022/11/02 04:50:12;;;;;;;6.97;2.38;;;18.70;99.90;;;;;;4140017;28;20578;-73
2022/11/02 04:52:16;;;;;;;4.88;2.28;;;18.70;99.90;;;;;;4145825;28;20217;-73
2022/11/02 04:54:18;;;;;;;4.50;2.15;;;18.70;99.90;;;;;;4142484;28;20217;-73
2022/11/02 04:56:21;;;;;;;6.03;2.42;;;18.70;99.90;;;;;;4143904;28;20263;-73
2022/11/02 04:58:23;;;;;;;6.43;2.17;;;18.60;99.90;;;;;;4144330;28;20213;-73
2022/11/02 05:00:25;;;;;;;4.50;2.08;;;18.70;99.90;;;;;;4143269;28;20217;-73
2022/11/02 05:02:28;;;;;;;4.88;2.00;;;18.70;99.90;;;;;;4143388;28;20291;-73
2022/11/02 05:04:30;;;;;;;4.70;2.35;;;18.70;99.90;;;;;;4144333;28;20213;-73
2022/11/02 05:06:32;;;;;;;5.45;1.98;;;18.70;99.90;;;;;;4142689;28;20615;-73
2022/11/02 05:08:36;;;;;;;6.13;2.42;;;18.70;99.90;;;;;;4143005;28;20735;-73
2022/11/02 05:10:39;;;;;;;4.35;1.92;;;18.70;99.90;;;;;;4146093;28;20252;-73
2022/11/02 05:12:41;;;;;;;7.18;2.45;;;18.70;99.90;;;;;;4141925;28;20646;-73
2022/11/02 05:14:43;;;;;;;4.05;1.80;;;18.70;99.90;;;;;;4142023;28;20271;-73
2022/11/02 05:16:45;;;;;;;8.32;2.25;;;18.70;99.90;;;;;;4141532;28;20220;-73
2022/11/02 05:18:48;;;;;;;6.72;2.25;;;18.60;99.90;;;;;;4141170;28;20268;-73
2022/11/02 05:20:51;;;;;;;4.93;2.42;;;18.70;99.90;;;;;;4143508;28;20233;-73
2022/11/02 05:22:53;;;;;;;6.43;2.22;;;18.70;99.90;;;;;;4143573;28;20222;-73
2022/11/02 05:24:57;;;;;;;6.45;1.88;;;18.60;99.90;;;;;;4140799;28;20772;-73
2022/11/02 05:26:59;;;;;;;4.35;2.03;;;18.60;99.90;;;;;;4149303;28;20620;-73
2022/11/02 05:29:02;;;;;;;5.28;2.03;;;18.60;99.90;;;;;;4144475;28;20221;-73
2022/11/02 05:31:04;;;;;;;5.07;1.92;;;18.60;99.90;;;;;;4141520;28;21001;-73
2022/11/02 05:33:07;;;;;;;4.50;2.10;;;18.60;99.90;;;;;;4144298;28;20359;-73
2022/11/02 05:35:09;;;;;;;4.43;2.00;;;18.70;99.90;;;;;;4147264;28;20225;-73
2022/11/02 05:37:11;;;;;;;4.82;2.30;;;18.70;99.90;;;;;;4141063;28;20217;-73
2022/11/02 05:39:14;;;;;;;5.45;2.00;;;18.70;99.90;;;;;;4144954;28;20248;-73
2022/11/02 05:41:17;;;;;;;5.35;2.20;;;18.60;99.90;;;;;;4142886;28;20311;-73
2022/11/02 05:43:20;;;;;;;4.80;2.17;;;18.60;99.90;;;;;;4142215;28;20229;-73
2022/11/02 05:45:22;;;;;;;5.43;2.58;;;18.60;99.90;;;;;;4144298;28;20228;-73
2022/11/02 05:47:24;;;;;;;5.70;2.00;;;18.70;99.90;;;;;;4141793;28;20271;-73
2022/11/02 05:49:26;;;;;;;6.38;2.10;;;18.60;99.90;;;;;;4144390;28;20217;-73
2022/11/02 05:51:29;;;;;;;4.22;1.90;;;18.70;99.90;;;;;;4143602;28;20717;-73
2022/11/02 05:53:32;;;;;;;7.50;2.30;;;18.70;99.90;;;;;;4143586;28;20605;-73
2022/11/02 05:55:35;;;;;;;6.47;2.58;;;18.60;99.90;;;;;;4147152;28;20244;-73
2022/11/02 05:57:39;;;;;;;7.65;2.80;;;18.60;99.90;;;;;;4146707;28;20588;-73
2022/11/02 05:59:41;;;;;;;5.10;2.20;;;18.60;99.90;;;;;;4141819;28;20277;-73
2022/11/02 06:01:43;;;;;;;6.15;2.15;;;18.60;99.90;;;;;;4146197;28;20306;-73
2022/11/02 06:03:45;;;;;;;5.78;2.10;;;18.60;99.90;;;;;;4146324;28;20296;-73
2022/11/02 06:05:48;;;;;;;6.72;2.58;;;18.60;99.90;;;;;;4144270;28;20213;-73
2022/11/02 06:07:50;;;;;;;6.18;2.42;;;18.60;99.90;;;;;;4145124;28;20237;-73
2022/11/02 06:09:52;;;;;;;6.47;2.10;;;18.60;99.90;;;;;;4146537;28;20229;-73
2022/11/02 06:11:56;;;;;;;4.53;2.00;;;18.60;99.90;;;;;;4143605;28;20271;-73
2022/11/02 06:13:59;;;;;;;5.07;2.35;;;18.60;99.90;;;;;;4146343;28;20214;-73
2022/11/02 06:16:02;;;;;;;5.03;2.22;;;18.60;99.90;;;;;;4145990;28;20225;-73
2022/11/02 06:18:06;;;;;;;3.80;1.77;;;18.60;99.90;;;;;;4139876;28;20275;-73
2022/11/02 06:20:09;;;;;;;6.82;2.22;;;18.60;99.90;;;;;;4146777;28;20214;-73
2022/11/02 06:22:12;;;;;;;5.50;2.30;;;18.60;99.90;;;;;;4145732;28;20319;-73
2022/11/02 06:24:14;;;;;;;4.47;1.83;;;18.60;99.90;;;;;;4141476;28;20239;-73
2022/11/02 06:26:17;;;;;;;4.68;2.15;;;18.60;99.90;;;;;;4147237;28;20213;-73
2022/11/02 06:28:19;;;;;;;5.68;2.00;;;18.50;99.90;;;;;;4146342;28;20905;-73
2022/11/02 06:30:23;;;;;;;5.70;2.00;;;18.60;99.90;;;;;;4143414;28;20281;-73
2022/11/02 06:32:25;;;;;;;7.20;2.55;;;18.60;99.90;;;;;;4146723;28;20267;-73
2022/11/02 06:34:28;;;;;;;4.78;2.10;;;18.60;99.90;;;;;;4144354;28;20235;-73
2022/11/02 06:36:30;;;;;;;5.60;2.08;;;18.60;99.90;;;;;;4143877;28;20217;-73
2022/11/02 06:38:32;;;;;;;5.18;2.15;;;18.60;99.90;;;;;;4145842;28;20395;-73
2022/11/02 06:40:35;;;;;;;5.85;1.90;;;18.50;99.90;;;;;;4141878;28;20228;-73
2022/11/02 06:42:37;;;;;;;6.72;2.03;;;18.60;99.90;;;;;;4147580;28;20271;-73
2022/11/02 06:44:39;;;;;;;7.00;2.10;;;18.50;99.90;;;;;;4145667;28;20250;-73
2022/11/02 06:46:43;;;;;;;5.03;1.85;;;18.50;99.90;;;;;;4142190;28;20217;-73
2022/11/02 06:48:47;;;;;;;6.97;2.35;;;18.50;99.90;;;;;;4146763;28;20221;-73
2022/11/02 06:50:50;;;;;;;5.38;2.15;;;18.50;99.90;;;;;;4145299;28;20669;-73
2022/11/02 06:52:52;;;;;;;7.35;2.03;;;18.50;99.90;;;;;;4143148;28;20279;-73
2022/11/02 06:54:54;;;;;;;7.05;2.03;;;18.50;99.90;;;;;;4145310;28;20216;-73
2022/11/02 06:56:57;;;;;;;6.15;2.10;;;18.50;99.90;;;;;;4147157;28;20216;-73
2022/11/02 06:58:59;;;;;;;6.65;1.95;;;18.50;99.90;;;;;;4144811;28;20284;-73
2022/11/02 07:01:04;;;;;;;6.57;2.40;;;18.50;99.90;;;;;;4146078;28;20609;-73
2022/11/02 07:03:10;;;;;;;7.70;2.47;;;18.50;99.90;;;;;;4144654;28;20244;-73
2022/11/02 07:05:13;;;;;;;5.45;2.17;;;18.50;99.90;;;;;;4143096;28;20224;-73
2022/11/02 07:07:16;;;;;;;5.43;2.03;;;18.50;99.90;;;;;;4145871;28;20598;-73
2022/11/02 07:09:18;;;;;;;5.63;2.25;;;18.50;99.90;;;;;;4146407;28;20221;-73
2022/11/02 07:11:21;;;;;;;4.82;1.98;;;18.50;99.90;;;;;;4143219;28;20233;-73
2022/11/02 07:13:23;;;;;;;6.25;2.13;;;18.50;99.90;;;;;;4144310;28;20661;-73
2022/11/02 07:15:26;;;;;;;5.25;2.15;;;18.50;99.90;;;;;;4150846;28;20265;-73
2022/11/02 07:17:29;;;;;;;4.53;2.03;;;18.50;99.90;;;;;;4144949;28;20225;-73
2022/11/02 07:19:32;;;;;;;4.70;2.17;;;18.50;99.90;;;;;;4145902;28;20268;-73
2022/11/02 07:21:35;;;;;;;5.40;2.00;;;18.50;99.90;;;;;;4147036;28;20213;-73
2022/11/02 07:23:37;;;;;;;5.20;2.00;;;18.50;99.90;;;;;;4145349;28;20225;-72
2022/11/02 07:25:39;;;;;;;6.38;2.15;;;18.50;99.90;;;;;;4146357;28;20233;-73
2022/11/02 07:27:41;;;;;;;7.43;2.35;;;18.50;99.90;;;;;;4140553;28;20736;-73
2022/11/02 07:29:44;;;;;;;5.38;1.83;;;18.50;99.90;;;;;;4145291;28;20229;-73
2022/11/02 07:31:46;;;;;;;7.13;2.13;;;18.50;99.90;;;;;;4147841;28;20221;-72
2022/11/02 07:33:48;;;;;;;5.35;1.80;;;18.50;99.90;;;;;;4142910;28;20263;-73
2022/11/02 07:35:52;;;;;;;6.50;1.70;;;18.50;99.90;;;;;;4145494;28;20225;-72
2022/11/02 07:37:58;;;;;;;6.43;1.95;;;18.50;99.90;;;;;;4145022;28;20743;-72
2022/11/02 07:40:01;;;;;;;5.13;2.10;;;18.50;99.90;;;;;;4141877;28;20630;-72
2022/11/02 07:42:05;;;;;;;6.20;2.10;;;18.50;99.90;;;;;;4154070;28;20755;-72
2022/11/02 07:44:08;;;;;;;7.65;2.42;;;18.50;99.90;;;;;;4133934;28;20293;-73
2022/11/02 07:46:10;;;;;;;5.60;2.20;;;18.50;99.90;;;;;;4136652;28;20209;-73
2022/11/02 07:48:12;;;;;;;6.40;1.77;;;18.50;99.90;;;;;;4142476;28;20221;-73
2022/11/02 07:50:17;;;;;;;6.10;2.17;;;18.50;99.90;;;;;;4139421;28;20221;-73
2022/11/02 07:52:20;;;;;;;6.05;2.00;;;18.50;99.90;;;;;;4145981;28;20585;-73
2022/11/02 07:54:23;;;;;;;4.65;2.17;;;18.50;99.90;;;;;;4144824;28;20214;-73
2022/11/02 07:56:25;;;;;;;7.13;2.03;;;18.50;99.90;;;;;;4141035;28;20222;-74
2022/11/02 07:58:27;;;;;;;6.40;2.30;;;18.50;99.90;;;;;;4145851;28;20209;-74
2022/11/02 08:00:31;;;;;;;6.18;2.30;;;18.50;99.90;;;;;;4144544;28;20223;-74
2022/11/02 08:02:34;;;;;;;5.45;1.80;;;18.50;99.90;;;;;;4136561;28;20233;-73
2022/11/02 08:04:36;;;;;;;6.35;2.10;;;18.50;99.90;;;;;;4132431;28;20708;-72
2022/11/02 08:06:38;;;;;;;8.15;2.40;;;18.50;99.90;;;;;;4140736;28;20708;-72
2022/11/02 08:08:42;;;;;;;7.22;1.98;;;18.50;99.90;;;;;;4137841;28;20267;-72
2022/11/02 08:10:46;;;;;;;8.57;2.72;;;18.50;99.90;;;;;;4140768;28;20275;-73
2022/11/02 08:12:48;;;;;;;8.05;2.55;;;18.60;99.90;;;;;;4139035;28;20291;-77
2022/11/02 08:14:50;;;;;;;5.63;2.28;;;18.60;99.90;;;;;;4142017;28;20225;-75
2022/11/02 08:16:53;;;;;;;9.52;2.50;;;18.60;99.90;;;;;;4141876;28;20217;-76
2022/11/02 08:18:57;;;;;;;7.28;2.17;;;18.60;99.90;;;;;;4136320;28;20275;-75
2022/11/02 08:21:00;;;;;;;7.82;2.13;;;18.80;99.90;;;;;;4136564;28;20911;-75
2022/11/02 08:23:02;;;;;;;8.55;2.20;;;18.90;99.90;;;;;;4135376;28;20237;-75
2022/11/02 08:25:08;;;;;;;8.10;2.40;;;19.00;99.90;;;;;;4139554;28;20228;-74
2022/11/02 08:27:10;;;;;;;9.10;2.58;;;19.10;99.90;;;;;;4143108;28;20221;-74
2022/11/02 08:29:13;;;;;;;9.88;2.80;;;19.20;99.90;;;;;;4136159;28;20214;-75
2022/11/02 08:31:17;;;;;;;9.82;2.80;;;19.40;99.90;;;;;;4139823;28;20283;-74
2022/11/02 08:33:21;;;;;;;7.13;2.08;;;19.40;99.90;;;;;;4140867;28;20221;-75
2022/11/02 08:35:23;;;;;;;8.02;2.25;;;19.40;99.90;;;;;;4142556;28;20221;-77
2022/11/02 08:37:25;;;;;;;9.07;2.40;;;19.60;99.90;;;;;;4144653;28;20225;-76
2022/11/02 08:39:28;;;;;;;10.93;2.50;;;19.70;99.90;;;;;;4140394;28;20232;-76
2022/11/02 08:41:32;;;;;;;5.82;2.00;;;19.70;99.90;;;;;;4143243;28;20321;-77
2022/11/02 08:43:34;;;;;;;9.00;2.10;;;19.80;99.90;;;;;;4142442;28;20283;-75
2022/11/02 08:45:40;;;;;;;8.05;2.00;;;19.80;99.90;;;;;;4143811;28;20213;-77
2022/11/02 08:47:42;;;;;;;8.40;2.05;;;19.90;99.90;;;;;;4141401;28;20281;-76
2022/11/02 08:49:45;;;;;;;7.63;2.42;;;19.90;99.90;;;;;;4141683;28;20213;-74
2022/11/02 08:51:48;;;;;;;8.70;2.45;;;19.90;99.90;;;;;;4138696;28;20217;-73
2022/11/02 08:53:50;;;;;;;6.63;2.45;;;19.90;99.90;;;;;;4143119;28;20291;-74
2022/11/02 08:55:53;;;;;;;7.20;2.47;;;20.00;99.90;;;;;;4141741;28;20209;-73
2022/11/02 08:57:57;;;;;;;10.82;2.40;;;20.10;99.90;;;;;;4136919;28;20217;-74
2022/11/02 09:00:00;;;;;;;6.80;2.17;;;20.20;99.90;;;;;;4142736;28;20274;-75
2022/11/02 09:02:02;;;;;;;7.90;2.25;;;20.00;99.90;;;;;;4145308;28;20217;-75
2022/11/02 09:04:05;;;;;;;7.28;2.55;;;20.10;99.90;;;;;;4140924;28;20267;-74
2022/11/02 09:06:07;;;;;;;13.50;2.58;;;20.30;99.90;;;;;;4144035;28;20623;-75
2022/11/02 09:08:12;;;;;;;12.20;3.17;;;20.30;99.90;;;;;;4134623;28;20213;-75
2022/11/02 09:10:14;;;;;;;6.60;2.13;;;20.30;99.90;;;;;;4141181;28;20275;-74
2022/11/02 09:12:17;;;;;;;8.05;2.70;;;20.30;99.90;;;;;;4137022;28;20287;-74
2022/11/02 09:14:20;;;;;;;4.78;2.13;;;20.30;99.90;;;;;;4141684;28;20267;-75
2022/11/02 09:16:23;;;;;;;6.95;2.45;;;20.50;99.90;;;;;;4142119;28;20292;-74
2022/11/02 09:18:25;;;;;;;4.97;2.10;;;20.50;99.90;;;;;;4142648;28;20566;-74
2022/11/02 09:20:27;;;;;;;6.80;2.13;;;20.50;99.90;;;;;;4143529;28;20280;-74
2022/11/02 09:22:30;;;;;;;5.88;2.33;;;20.50;99.90;;;;;;4140769;28;20265;-73
2022/11/02 09:24:33;;;;;;;5.30;2.05;;;20.50;99.90;;;;;;4142821;28;20221;-74
2022/11/02 09:26:35;;;;;;;7.95;2.47;;;20.60;99.90;;;;;;4138045;28;20627;-74
2022/11/02 09:28:37;;;;;;;9.40;2.35;;;20.50;99.90;;;;;;4139177;28;20225;-74
2022/11/02 09:30:42;;;;;;;8.45;2.35;;;20.60;99.90;;;;;;4145541;28;20221;-75
2022/11/02 09:32:44;;;;;;;9.82;2.30;;;20.60;99.90;;;;;;4144883;28;20922;-75
2022/11/02 09:34:49;;;;;;;9.88;2.67;;;20.60;99.90;;;;;;4146932;28;20225;-75
2022/11/02 09:36:51;;;;;;;5.75;2.42;;;20.70;99.90;;;;;;4145471;28;20615;-75
2022/11/02 09:38:53;;;;;;;8.70;2.28;;;20.70;99.90;;;;;;4139548;28;20217;-75
2022/11/02 09:41:04;;;;;;;6.72;2.35;;;20.70;99.90;;;;;;4142822;28;20347;-74
2022/11/02 09:43:16;;;;;;;6.30;2.30;;;20.70;99.90;;;;;;4144969;28;20287;-75
2022/11/02 09:45:19;;;;;;;6.22;2.20;;;20.80;99.90;;;;;;4142757;28;20217;-74
2022/11/02 09:47:26;;;;;;;7.90;1.98;;;20.90;99.90;;;;;;4142858;28;20217;-75
2022/11/02 09:49:30;;;;;;;5.68;2.17;;;20.80;99.90;;;;;;4139572;28;20234;-74
2022/11/02 09:51:37;;;;;;;8.38;2.95;;;20.90;99.90;;;;;;4141181;28;20221;-74
2022/11/02 09:53:49;;;;;;;9.00;2.53;;;20.90;99.90;;;;;;4141178;28;20585;-72
2022/11/02 09:55:54;;;;;;;8.18;2.42;;;21.00;99.90;;;;;;4146124;28;20638;-73
2022/11/02 09:58:02;;;;;;;6.32;2.13;;;20.90;99.90;;;;;;4140816;28;20683;-75
2022/11/02 10:00:06;;;;;;;6.47;2.28;;;21.00;99.90;;;;;;4144863;28;20213;-75
2022/11/02 10:02:22;;;;;;;9.40;2.42;;;21.10;99.90;;;;;;4145867;28;20666;-76
2022/11/02 10:04:58;;;;;;;6.43;2.15;;;21.00;99.90;;;;;;4143727;28;20233;-75
2022/11/02 10:07:06;;;;;;;7.88;2.30;;;21.00;99.90;;;;;;4139792;28;20287;-76
2022/11/02 10:09:15;;;;;;;9.00;2.13;;;21.00;99.90;;;;;;4142256;28;20225;-74
2022/11/02 10:11:36;;;;;;;6.53;2.03;;;21.10;99.90;;;;;;4144979;28;20348;-75
2022/11/02 10:13:44;;;;;;;6.38;2.22;;;21.10;99.90;;;;;;4144751;28;20613;-75
2022/11/02 10:15:50;;;;;;;7.93;2.17;;;21.30;99.90;;;;;;4142844;28;20212;-74
2022/11/02 10:17:58;;;;;;;6.63;2.55;;;21.20;99.90;;;;;;4145060;28;20264;-73
2022/11/02 10:20:07;;;;;;;7.93;2.38;;;21.20;99.90;;;;;;4143196;28;20623;-73
2022/11/02 10:22:13;;;;;;;7.80;2.72;;;21.20;99.90;;;;;;4140226;28;20278;-74
2022/11/02 10:24:24;;;;;;;6.28;2.08;;;21.20;99.90;;;;;;4141192;28;20283;-74
2022/11/02 10:26:29;;;;;;;6.57;1.95;;;21.20;99.90;;;;;;4139018;28;20216;-73
2022/11/02 10:28:35;;;;;;;7.85;2.25;;;21.30;99.90;;;;;;4137758;28;20283;-74
2022/11/02 10:30:38;;;;;;;8.63;1.90;;;21.30;99.90;;;;;;4141542;28;20225;-75
2022/11/02 10:32:43;;;;;;;7.10;2.33;;;21.30;99.90;;;;;;4141252;28;20268;-75
2022/11/02 10:34:46;;;;;;;7.13;2.75;;;21.30;99.90;;;;;;4138712;28;20268;-74
2022/11/02 10:37:01;;;;;;;8.20;2.47;;;21.20;99.90;;;;;;4139721;28;20235;-73
2022/11/02 10:39:18;;;;;;;7.60;2.45;;;21.20;99.90;;;;;;4140936;28;20570;-75
2022/11/02 10:41:41;;;;;;;7.43;2.65;;;21.20;99.90;;;;;;4144059;28;20224;-75
2022/11/02 10:43:57;;;;;;;7.93;2.45;;;21.20;99.90;;;;;;4137981;28;20237;-75
2022/11/02 10:46:22;;;;;;;4.28;2.15;;;21.30;99.90;;;;;;4138230;28;20619;-73
2022/11/02 10:48:35;;;;;;;8.65;1.92;;;21.30;99.90;;;;;;4139846;28;20209;-74
2022/11/02 10:50:47;;;;;;;7.85;2.50;;;21.20;99.90;;;;;;4141483;28;20781;-74
2022/11/02 10:52:50;;;;;;;5.75;2.08;;;21.30;99.90;;;;;;4143273;28;20221;-74
2022/11/02 10:54:53;;;;;;;6.32;2.40;;;21.40;99.90;;;;;;4143478;28;20217;-75
2022/11/02 10:56:56;;;;;;;5.68;2.17;;;21.30;99.90;;;;;;4142167;28;20279;-75
2022/11/02 10:59:03;;;;;;;6.65;2.15;;;21.20;99.90;;;;;;4146218;28;20229;-74
2022/11/02 11:01:06;;;;;;;8.00;2.50;;;21.30;99.90;;;;;;4140887;28;20263;-75